sensor_id;sensor_type;location;lat;lon;timestamp;P1;durP1;ratioP1;P2;durP2;ratioP2
22675;SDS011;12521;43.310;21.876;2023-02-28T00:00:54;44.0;;;34.0;;
22675;SDS011;12521;43.310;21.876;2023-02-28T00:05:32;44.0;;;34.0;;
22675;SDS011;12521;43.310;21.876;2023-02-28T00:10:14;48.0;;;36.0;;
22675;SDS011;12521;43.310;21.876;2023-02-28T00:14:54;48.0;;;36.0;;
22675;SDS011;12521;43.310;21.876;2023-02-28T00:19:30;51.0;;;37.0;;
22675;SDS011;12521;43.310;21.876;2023-02-28T00:24:07;51.0;;;37.0;;
22675;SDS011;12521;43.310;21.876;2023-02-28T00:28:44;51.0;;;37.0;;
22675;SDS011;12521;43.310;21.876;2023-02-28T00:33:21;46.0;;;35.0;;
22675;SDS011;12521;43.310;21.876;2023-02-28T00:37:58;46.0;;;35.0;;
22675;SDS011;12521;43.310;21.876;2023-02-28T00:42:36;41.0;;;33.0;;
22675;SDS011;12521;43.310;21.876;2023-02-28T00:47:15;41.0;;;33.0;;
22675;SDS011;12521;43.310;21.876;2023-02-28T00:51:54;40.0;;;32.0;;
22675;SDS011;12521;43.310;21.876;2023-02-28T00:56:32;40.0;;;32.0;;
22675;SDS011;12521;43.310;21.876;2023-02-28T01:01:09;40.0;;;30.0;;
22675;SDS011;12521;43.310;21.876;2023-02-28T01:05:47;40.0;;;30.0;;
22675;SDS011;12521;43.310;21.876;2023-02-28T01:10:27;42.0;;;31.0;;
22675;SDS011;12521;43.310;21.876;2023-02-28T01:15:10;42.0;;;31.0;;
22675;SDS011;12521;43.310;21.876;2023-02-28T01:19:48;43.0;;;32.0;;
22675;SDS011;12521;43.310;21.876;2023-02-28T01:24:24;43.0;;;32.0;;
22675;SDS011;12521;43.310;21.876;2023-02-28T01:29:02;43.0;;;32.0;;
22675;SDS011;12521;43.310;21.876;2023-02-28T01:33:40;42.0;;;32.0;;
22675;SDS011;12521;43.310;21.876;2023-02-28T01:38:18;42.0;;;32.0;;
22675;SDS011;12521;43.310;21.876;2023-02-28T01:42:54;42.0;;;31.0;;
22675;SDS011;12521;43.310;21.876;2023-02-28T01:47:38;42.0;;;31.0;;
22675;SDS011;12521;43.310;21.876;2023-02-28T01:52:27;42.0;;;31.0;;
22675;SDS011;12521;43.310;21.876;2023-02-28T01:57:18;42.0;;;31.0;;
22675;SDS011;12521;43.310;21.876;2023-02-28T02:02:13;43.0;;;31.0;;
22675;SDS011;12521;43.310;21.876;2023-02-28T02:06:58;43.0;;;31.0;;
22675;SDS011;12521;43.310;21.876;2023-02-28T02:11:41;42.0;;;30.0;;
22675;SDS011;12521;43.310;21.876;2023-02-28T02:16:52;42.0;;;30.0;;
22675;SDS011;12521;43.310;21.876;2023-02-28T02:22:46;42.0;;;30.0;;
22675;SDS011;12521;43.310;21.876;2023-02-28T02:32:04;42.0;;;32.0;;
22675;SDS011;12521;43.310;21.876;2023-02-28T02:37:33;42.0;;;32.0;;
22675;SDS011;12521;43.310;21.876;2023-02-28T02:42:31;43.0;;;35.0;;
22675;SDS011;12521;43.310;21.876;2023-02-28T02:47:28;43.0;;;35.0;;
22675;SDS011;12521;43.310;21.876;2023-02-28T02:52:20;46.0;;;38.0;;
22675;SDS011;12521;43.310;21.876;2023-02-28T02:57:18;46.0;;;38.0;;
22675;SDS011;12521;43.310;21.876;2023-02-28T03:02:14;49.0;;;41.0;;
22675;SDS011;12521;43.310;21.876;2023-02-28T03:06:59;49.0;;;41.0;;
22675;SDS011;12521;43.310;21.876;2023-02-28T03:11:39;48.0;;;41.0;;
22675;SDS011;12521;43.310;21.876;2023-02-28T03:16:51;48.0;;;41.0;;
22675;SDS011;12521;43.310;21.876;2023-02-28T03:22:47;48.0;;;41.0;;
22675;SDS011;12521;43.310;21.876;2023-02-28T03:28:15;48.0;;;41.0;;
22675;SDS011;12521;43.310;21.876;2023-02-28T03:33:35;46.0;;;36.0;;
22675;SDS011;12521;43.310;21.876;2023-02-28T03:38:44;46.0;;;36.0;;
22675;SDS011;12521;43.310;21.876;2023-02-28T03:43:49;44.0;;;32.0;;
22675;SDS011;12521;43.310;21.876;2023-02-28T03:48:51;44.0;;;32.0;;
22675;SDS011;12521;43.310;21.876;2023-02-28T03:53:54;50.0;;;38.0;;
22675;SDS011;12521;43.310;21.876;2023-02-28T03:58:57;50.0;;;38.0;;
22675;SDS011;12521;43.310;21.876;2023-02-28T04:03:50;57.0;;;44.0;;
22675;SDS011;12521;43.310;21.876;2023-02-28T04:08:28;57.0;;;44.0;;
22675;SDS011;12521;43.310;21.876;2023-02-28T04:13:04;50.0;;;39.0;;
22675;SDS011;12521;43.310;21.876;2023-02-28T04:17:41;50.0;;;39.0;;
22675;SDS011;12521;43.310;21.876;2023-02-28T04:22:18;42.0;;;34.0;;
22675;SDS011;12521;43.310;21.876;2023-02-28T04:26:57;42.0;;;34.0;;
22675;SDS011;12521;43.310;21.876;2023-02-28T04:31:34;48.0;;;35.0;;
22675;SDS011;12521;43.310;21.876;2023-02-28T04:36:12;48.0;;;35.0;;
22675;SDS011;12521;43.310;21.876;2023-02-28T04:40:49;53.0;;;36.0;;
22675;SDS011;12521;43.310;21.876;2023-02-28T04:45:26;53.0;;;36.0;;
22675;SDS011;12521;43.310;21.876;2023-02-28T04:50:04;54.0;;;37.0;;
22675;SDS011;12521;43.310;21.876;2023-02-28T04:54:42;54.0;;;37.0;;
22675;SDS011;12521;43.310;21.876;2023-02-28T04:59:19;54.0;;;37.0;;
22675;SDS011;12521;43.310;21.876;2023-02-28T05:04:00;54.0;;;38.0;;
22675;SDS011;12521;43.310;21.876;2023-02-28T05:08:41;54.0;;;38.0;;
22675;SDS011;12521;43.310;21.876;2023-02-28T05:13:17;54.0;;;38.0;;
22675;SDS011;12521;43.310;21.876;2023-02-28T05:17:54;54.0;;;38.0;;
22675;SDS011;12521;43.310;21.876;2023-02-28T05:22:30;53.0;;;37.0;;
22675;SDS011;12521;43.310;21.876;2023-02-28T05:27:08;53.0;;;37.0;;
22675;SDS011;12521;43.310;21.876;2023-02-28T05:31:47;52.0;;;35.0;;
22675;SDS011;12521;43.310;21.876;2023-02-28T05:36:24;52.0;;;35.0;;
22675;SDS011;12521;43.310;21.876;2023-02-28T05:41:07;50.0;;;33.0;;
22675;SDS011;12521;43.310;21.876;2023-02-28T05:45:46;50.0;;;33.0;;
22675;SDS011;12521;43.310;21.876;2023-02-28T05:50:22;55.0;;;38.0;;
22675;SDS011;12521;43.310;21.876;2023-02-28T05:54:59;55.0;;;38.0;;
22675;SDS011;12521;43.310;21.876;2023-02-28T05:59:36;60.0;;;43.0;;
22675;SDS011;12521;43.310;21.876;2023-02-28T06:04:16;60.0;;;43.0;;
22675;SDS011;12521;43.310;21.876;2023-02-28T06:08:57;60.0;;;43.0;;
22675;SDS011;12521;43.310;21.876;2023-02-28T06:13:34;62.0;;;46.0;;
22675;SDS011;12521;43.310;21.876;2023-02-28T06:18:10;62.0;;;46.0;;
22675;SDS011;12521;43.310;21.876;2023-02-28T06:22:47;65.0;;;49.0;;
22675;SDS011;12521;43.310;21.876;2023-02-28T06:27:23;65.0;;;49.0;;
22675;SDS011;12521;43.310;21.876;2023-02-28T06:32:00;60.0;;;46.0;;
22675;SDS011;12521;43.310;21.876;2023-02-28T06:36:38;60.0;;;46.0;;
22675;SDS011;12521;43.310;21.876;2023-02-28T06:41:15;56.0;;;43.0;;
22675;SDS011;12521;43.310;21.876;2023-02-28T06:45:56;56.0;;;43.0;;
22675;SDS011;12521;43.310;21.876;2023-02-28T06:50:35;56.0;;;42.0;;
22675;SDS011;12521;43.310;21.876;2023-02-28T06:55:12;56.0;;;42.0;;
22675;SDS011;12521;43.310;21.876;2023-02-28T06:59:49;55.0;;;41.0;;
22675;SDS011;12521;43.310;21.876;2023-02-28T07:04:26;55.0;;;41.0;;
22675;SDS011;12521;43.310;21.876;2023-02-28T07:09:03;55.0;;;41.0;;
22675;SDS011;12521;43.310;21.876;2023-02-28T07:13:41;57.0;;;42.0;;
22675;SDS011;12521;43.310;21.876;2023-02-28T07:18:18;57.0;;;42.0;;
22675;SDS011;12521;43.310;21.876;2023-02-28T07:22:55;59.0;;;42.0;;
22675;SDS011;12521;43.310;21.876;2023-02-28T07:27:32;59.0;;;42.0;;
22675;SDS011;12521;43.310;21.876;2023-02-28T07:32:08;63.0;;;46.0;;
22675;SDS011;12521;43.310;21.876;2023-02-28T07:36:45;63.0;;;46.0;;
22675;SDS011;12521;43.310;21.876;2023-02-28T07:41:22;67.0;;;49.0;;
22675;SDS011;12521;43.310;21.876;2023-02-28T07:46:04;67.0;;;49.0;;
22675;SDS011;12521;43.310;21.876;2023-02-28T07:50:55;70.0;;;50.0;;
22675;SDS011;12521;43.310;21.876;2023-02-28T07:55:33;70.0;;;50.0;;
22675;SDS011;12521;43.310;21.876;2023-02-28T08:00:13;74.0;;;51.0;;
22675;SDS011;12521;43.310;21.876;2023-02-28T08:04:50;74.0;;;51.0;;
22675;SDS011;12521;43.310;21.876;2023-02-28T08:09:26;74.0;;;51.0;;
22675;SDS011;12521;43.310;21.876;2023-02-28T08:14:03;74.0;;;52.0;;
22675;SDS011;12521;43.310;21.876;2023-02-28T08:18:39;74.0;;;52.0;;
22675;SDS011;12521;43.310;21.876;2023-02-28T08:23:16;75.0;;;53.0;;
22675;SDS011;12521;43.310;21.876;2023-02-28T08:27:53;75.0;;;53.0;;
22675;SDS011;12521;43.310;21.876;2023-02-28T08:32:29;69.0;;;49.0;;
22675;SDS011;12521;43.310;21.876;2023-02-28T08:37:08;69.0;;;49.0;;
22675;SDS011;12521;43.310;21.876;2023-02-28T08:41:46;63.0;;;45.0;;
22675;SDS011;12521;43.310;21.876;2023-02-28T08:46:24;63.0;;;45.0;;
22675;SDS011;12521;43.310;21.876;2023-02-28T08:51:09;84.0;;;58.0;;
22675;SDS011;12521;43.310;21.876;2023-02-28T08:55:58;84.0;;;58.0;;
22675;SDS011;12521;43.310;21.876;2023-02-28T09:00:44;104.0;;;70.0;;
22675;SDS011;12521;43.310;21.876;2023-02-28T09:05:21;104.0;;;70.0;;
22675;SDS011;12521;43.310;21.876;2023-02-28T09:09:58;92.0;;;60.0;;
22675;SDS011;12521;43.310;21.876;2023-02-28T09:14:34;92.0;;;60.0;;
22675;SDS011;12521;43.310;21.876;2023-02-28T09:19:11;92.0;;;60.0;;
22675;SDS011;12521;43.310;21.876;2023-02-28T09:23:50;79.0;;;50.0;;
22675;SDS011;12521;43.310;21.876;2023-02-28T09:28:27;79.0;;;50.0;;
22675;SDS011;12521;43.310;21.876;2023-02-28T09:33:03;76.0;;;49.0;;
22675;SDS011;12521;43.310;21.876;2023-02-28T09:37:40;76.0;;;49.0;;
22675;SDS011;12521;43.310;21.876;2023-02-28T09:42:31;73.0;;;48.0;;
22675;SDS011;12521;43.310;21.876;2023-02-28T09:47:27;73.0;;;48.0;;
22675;SDS011;12521;43.310;21.876;2023-02-28T09:52:20;68.0;;;48.0;;
22675;SDS011;12521;43.310;21.876;2023-02-28T09:57:18;68.0;;;48.0;;
22675;SDS011;12521;43.310;21.876;2023-02-28T10:02:48;64.0;;;47.0;;
22675;SDS011;12521;43.310;21.876;2023-02-28T10:08:17;64.0;;;47.0;;
22675;SDS011;12521;43.310;21.876;2023-02-28T10:13:21;60.0;;;44.0;;
22675;SDS011;12521;43.310;21.876;2023-02-28T10:18:24;60.0;;;44.0;;
22675;SDS011;12521;43.310;21.876;2023-02-28T10:23:31;56.0;;;42.0;;
22675;SDS011;12521;43.310;21.876;2023-02-28T10:28:16;56.0;;;42.0;;
22675;SDS011;12521;43.310;21.876;2023-02-28T10:32:54;58.0;;;42.0;;
22675;SDS011;12521;43.310;21.876;2023-02-28T10:37:30;58.0;;;42.0;;
22675;SDS011;12521;43.310;21.876;2023-02-28T10:42:25;60.0;;;42.0;;
22675;SDS011;12521;43.310;21.876;2023-02-28T10:47:04;60.0;;;42.0;;
22675;SDS011;12521;43.310;21.876;2023-02-28T10:51:42;62.0;;;44.0;;
22675;SDS011;12521;43.310;21.876;2023-02-28T10:56:23;62.0;;;44.0;;
22675;SDS011;12521;43.310;21.876;2023-02-28T11:01:01;63.0;;;45.0;;
22675;SDS011;12521;43.310;21.876;2023-02-28T11:05:37;63.0;;;45.0;;
22675;SDS011;12521;43.310;21.876;2023-02-28T11:10:24;64.0;;;48.0;;
22675;SDS011;12521;43.310;21.876;2023-02-28T11:15:26;64.0;;;48.0;;
22675;SDS011;12521;43.310;21.876;2023-02-28T11:20:23;66.0;;;50.0;;
22675;SDS011;12521;43.310;21.876;2023-02-28T11:25:23;66.0;;;50.0;;
22675;SDS011;12521;43.310;21.876;2023-02-28T11:30:30;63.0;;;46.0;;
22675;SDS011;12521;43.310;21.876;2023-02-28T11:35:31;63.0;;;46.0;;
22675;SDS011;12521;43.310;21.876;2023-02-28T11:40:29;60.0;;;43.0;;
22675;SDS011;12521;43.310;21.876;2023-02-28T11:46:25;60.0;;;43.0;;
22675;SDS011;12521;43.310;21.876;2023-02-28T11:51:35;69.0;;;49.0;;
22675;SDS011;12521;43.310;21.876;2023-02-28T11:56:44;69.0;;;49.0;;
22675;SDS011;12521;43.310;21.876;2023-02-28T12:02:08;78.0;;;55.0;;
22675;SDS011;12521;43.310;21.876;2023-02-28T12:07:31;78.0;;;55.0;;
22675;SDS011;12521;43.310;21.876;2023-02-28T12:12:59;72.0;;;50.0;;
22675;SDS011;12521;43.310;21.876;2023-02-28T12:18:34;72.0;;;50.0;;
22675;SDS011;12521;43.310;21.876;2023-02-28T12:24:18;67.0;;;46.0;;
22675;SDS011;12521;43.310;21.876;2023-02-28T12:29:49;67.0;;;46.0;;
22675;SDS011;12521;43.310;21.876;2023-02-28T12:34:58;62.0;;;42.0;;
22675;SDS011;12521;43.310;21.876;2023-02-28T12:40:06;58.0;;;37.0;;
22675;SDS011;12521;43.310;21.876;2023-02-28T12:45:02;58.0;;;37.0;;
22675;SDS011;12521;43.310;21.876;2023-02-28T12:50:05;60.0;;;38.0;;
22675;SDS011;12521;43.310;21.876;2023-02-28T12:54:59;60.0;;;38.0;;
22675;SDS011;12521;43.310;21.876;2023-02-28T13:00:11;61.0;;;40.0;;
22675;SDS011;12521;43.310;21.876;2023-02-28T13:05:24;61.0;;;40.0;;
22675;SDS011;12521;43.310;21.876;2023-02-28T13:10:47;58.0;;;40.0;;
22675;SDS011;12521;43.310;21.876;2023-02-28T13:15:28;58.0;;;40.0;;
22675;SDS011;12521;43.310;21.876;2023-02-28T13:20:20;56.0;;;39.0;;
22675;SDS011;12521;43.310;21.876;2023-02-28T13:25:02;56.0;;;39.0;;
22675;SDS011;12521;43.310;21.876;2023-02-28T13:31:05;58.0;;;40.0;;
22675;SDS011;12521;43.310;21.876;2023-02-28T13:35:44;58.0;;;40.0;;
22675;SDS011;12521;43.310;21.876;2023-02-28T13:40:33;59.0;;;40.0;;
22675;SDS011;12521;43.310;21.876;2023-02-28T13:45:27;59.0;;;40.0;;
22675;SDS011;12521;43.310;21.876;2023-02-28T13:50:32;50.0;;;36.0;;
22675;SDS011;12521;43.310;21.876;2023-02-28T13:55:35;50.0;;;36.0;;
22675;SDS011;12521;43.310;21.876;2023-02-28T14:01:14;42.0;;;32.0;;
22675;SDS011;12521;43.310;21.876;2023-02-28T14:06:49;42.0;;;32.0;;
22675;SDS011;12521;43.310;21.876;2023-02-28T14:11:38;48.0;;;35.0;;
22675;SDS011;12521;43.310;21.876;2023-02-28T14:16:26;48.0;;;35.0;;
22675;SDS011;12521;43.310;21.876;2023-02-28T14:21:26;55.0;;;38.0;;
22675;SDS011;12521;43.310;21.876;2023-02-28T14:26:44;55.0;;;38.0;;
22675;SDS011;12521;43.310;21.876;2023-02-28T14:32:35;53.0;;;36.0;;
22675;SDS011;12521;43.310;21.876;2023-02-28T14:37:41;53.0;;;36.0;;
22675;SDS011;12521;43.310;21.876;2023-02-28T14:42:37;51.0;;;35.0;;
22675;SDS011;12521;43.310;21.876;2023-02-28T14:47:16;51.0;;;35.0;;
22675;SDS011;12521;43.310;21.876;2023-02-28T14:52:15;48.0;;;35.0;;
22675;SDS011;12521;43.310;21.876;2023-02-28T14:57:00;48.0;;;35.0;;
22675;SDS011;12521;43.310;21.876;2023-02-28T15:01:36;46.0;;;35.0;;
22675;SDS011;12521;43.310;21.876;2023-02-28T15:06:17;46.0;;;35.0;;
22675;SDS011;12521;43.310;21.876;2023-02-28T15:11:00;50.0;;;36.0;;
22675;SDS011;12521;43.310;21.876;2023-02-28T15:15:59;50.0;;;36.0;;
22675;SDS011;12521;43.310;21.876;2023-02-28T15:20:45;54.0;;;37.0;;
22675;SDS011;12521;43.310;21.876;2023-02-28T15:25:25;54.0;;;37.0;;
22675;SDS011;12521;43.310;21.876;2023-02-28T15:30:16;50.0;;;35.0;;
22675;SDS011;12521;43.310;21.876;2023-02-28T15:35:29;50.0;;;35.0;;
22675;SDS011;12521;43.310;21.876;2023-02-28T15:40:23;45.0;;;33.0;;
22675;SDS011;12521;43.310;21.876;2023-02-28T15:45:33;45.0;;;33.0;;
22675;SDS011;12521;43.310;21.876;2023-02-28T15:50:21;44.0;;;34.0;;
22675;SDS011;12521;43.310;21.876;2023-02-28T15:55:08;44.0;;;34.0;;
22675;SDS011;12521;43.310;21.876;2023-02-28T15:59:57;44.0;;;34.0;;
22675;SDS011;12521;43.310;21.876;2023-02-28T16:04:59;44.0;;;36.0;;
22675;SDS011;12521;43.310;21.876;2023-02-28T16:09:55;44.0;;;36.0;;
22675;SDS011;12521;43.310;21.876;2023-02-28T16:14:32;44.0;;;36.0;;
22675;SDS011;12521;43.310;21.876;2023-02-28T16:19:08;44.0;;;36.0;;
22675;SDS011;12521;43.310;21.876;2023-02-28T16:23:45;44.0;;;35.0;;
22675;SDS011;12521;43.310;21.876;2023-02-28T16:28:30;44.0;;;35.0;;
22675;SDS011;12521;43.310;21.876;2023-02-28T16:33:14;46.0;;;36.0;;
22675;SDS011;12521;43.310;21.876;2023-02-28T16:37:52;46.0;;;36.0;;
22675;SDS011;12521;43.310;21.876;2023-02-28T16:42:32;48.0;;;37.0;;
22675;SDS011;12521;43.310;21.876;2023-02-28T16:47:11;48.0;;;37.0;;
22675;SDS011;12521;43.310;21.876;2023-02-28T16:51:47;48.0;;;38.0;;
22675;SDS011;12521;43.310;21.876;2023-02-28T16:56:25;48.0;;;38.0;;
22675;SDS011;12521;43.310;21.876;2023-02-28T17:01:03;49.0;;;38.0;;
22675;SDS011;12521;43.310;21.876;2023-02-28T17:05:40;49.0;;;38.0;;
22675;SDS011;12521;43.310;21.876;2023-02-28T17:10:21;50.0;;;38.0;;
22675;SDS011;12521;43.310;21.876;2023-02-28T17:15:03;50.0;;;38.0;;
22675;SDS011;12521;43.310;21.876;2023-02-28T17:19:47;50.0;;;38.0;;
22675;SDS011;12521;43.310;21.876;2023-02-28T17:24:24;50.0;;;37.0;;
22675;SDS011;12521;43.310;21.876;2023-02-28T17:29:00;50.0;;;37.0;;
22675;SDS011;12521;43.310;21.876;2023-02-28T17:33:37;58.0;;;43.0;;
22675;SDS011;12521;43.310;21.876;2023-02-28T17:38:17;58.0;;;43.0;;
22675;SDS011;12521;43.310;21.876;2023-02-28T17:42:56;67.0;;;49.0;;
22675;SDS011;12521;43.310;21.876;2023-02-28T17:47:32;67.0;;;49.0;;
22675;SDS011;12521;43.310;21.876;2023-02-28T17:52:08;55.0;;;42.0;;
22675;SDS011;12521;43.310;21.876;2023-02-28T17:56:45;55.0;;;42.0;;
22675;SDS011;12521;43.310;21.876;2023-02-28T18:01:22;43.0;;;35.0;;
22675;SDS011;12521;43.310;21.876;2023-02-28T18:06:02;43.0;;;35.0;;
22675;SDS011;12521;43.310;21.876;2023-02-28T18:10:40;50.0;;;38.0;;
22675;SDS011;12521;43.310;21.876;2023-02-28T18:15:19;50.0;;;38.0;;
22675;SDS011;12521;43.310;21.876;2023-02-28T18:19:58;50.0;;;38.0;;
22675;SDS011;12521;43.310;21.876;2023-02-28T18:24:34;57.0;;;42.0;;
22675;SDS011;12521;43.310;21.876;2023-02-28T18:29:18;57.0;;;42.0;;
22675;SDS011;12521;43.310;21.876;2023-02-28T18:34:00;53.0;;;41.0;;
22675;SDS011;12521;43.310;21.876;2023-02-28T18:38:36;53.0;;;41.0;;
22675;SDS011;12521;43.310;21.876;2023-02-28T18:43:14;49.0;;;40.0;;
22675;SDS011;12521;43.310;21.876;2023-02-28T18:47:50;49.0;;;40.0;;
22675;SDS011;12521;43.310;21.876;2023-02-28T18:52:27;48.0;;;40.0;;
22675;SDS011;12521;43.310;21.876;2023-02-28T18:57:04;48.0;;;40.0;;
22675;SDS011;12521;43.310;21.876;2023-02-28T19:01:41;47.0;;;41.0;;
22675;SDS011;12521;43.310;21.876;2023-02-28T19:06:18;47.0;;;41.0;;
22675;SDS011;12521;43.310;21.876;2023-02-28T19:10:55;53.0;;;40.0;;
22675;SDS011;12521;43.310;21.876;2023-02-28T19:15:32;53.0;;;40.0;;
22675;SDS011;12521;43.310;21.876;2023-02-28T19:20:10;53.0;;;40.0;;
22675;SDS011;12521;43.310;21.876;2023-02-28T19:24:49;59.0;;;39.0;;
22675;SDS011;12521;43.310;21.876;2023-02-28T19:29:27;59.0;;;39.0;;
22675;SDS011;12521;43.310;21.876;2023-02-28T19:34:03;59.0;;;39.0;;
22675;SDS011;12521;43.310;21.876;2023-02-28T19:38:41;59.0;;;39.0;;
22675;SDS011;12521;43.310;21.876;2023-02-28T19:52:34;42.0;;;34.0;;
22675;SDS011;12521;43.310;21.876;2023-02-28T19:57:10;42.0;;;34.0;;
22675;SDS011;12521;43.310;21.876;2023-02-28T20:01:47;42.0;;;34.0;;
22675;SDS011;12521;43.310;21.876;2023-02-28T20:06:23;42.0;;;34.0;;
22675;SDS011;12521;43.310;21.876;2023-02-28T20:11:05;50.0;;;37.0;;
22675;SDS011;12521;43.310;21.876;2023-02-28T20:15:43;50.0;;;37.0;;
22675;SDS011;12521;43.310;21.876;2023-02-28T20:20:19;50.0;;;37.0;;
22675;SDS011;12521;43.310;21.876;2023-02-28T20:24:55;58.0;;;40.0;;
22675;SDS011;12521;43.310;21.876;2023-02-28T20:29:34;58.0;;;40.0;;
22675;SDS011;12521;43.310;21.876;2023-02-28T20:34:10;48.0;;;36.0;;
22675;SDS011;12521;43.310;21.876;2023-02-28T20:38:48;48.0;;;36.0;;
22675;SDS011;12521;43.310;21.876;2023-02-28T20:43:27;39.0;;;32.0;;
22675;SDS011;12521;43.310;21.876;2023-02-28T20:48:04;39.0;;;32.0;;
22675;SDS011;12521;43.310;21.876;2023-02-28T20:52:41;44.0;;;34.0;;
22675;SDS011;12521;43.310;21.876;2023-02-28T20:57:17;44.0;;;34.0;;
22675;SDS011;12521;43.310;21.876;2023-02-28T21:01:53;48.0;;;37.0;;
22675;SDS011;12521;43.310;21.876;2023-02-28T21:06:38;48.0;;;37.0;;
22675;SDS011;12521;43.310;21.876;2023-02-28T21:11:26;49.0;;;36.0;;
22675;SDS011;12521;43.310;21.876;2023-02-28T21:16:10;49.0;;;36.0;;
22675;SDS011;12521;43.310;21.876;2023-02-28T21:20:48;50.0;;;36.0;;
22675;SDS011;12521;43.310;21.876;2023-02-28T21:25:24;50.0;;;36.0;;
22675;SDS011;12521;43.310;21.876;2023-02-28T21:30:00;50.0;;;36.0;;
22675;SDS011;12521;43.310;21.876;2023-02-28T21:34:37;45.0;;;31.0;;
22675;SDS011;12521;43.310;21.876;2023-02-28T21:39:21;45.0;;;31.0;;
22675;SDS011;12521;43.310;21.876;2023-02-28T21:44:03;40.0;;;26.0;;
22675;SDS011;12521;43.310;21.876;2023-02-28T21:48:42;40.0;;;26.0;;
22675;SDS011;12521;43.310;21.876;2023-02-28T21:53:19;40.0;;;28.0;;
22675;SDS011;12521;43.310;21.876;2023-02-28T21:57:55;40.0;;;28.0;;
22675;SDS011;12521;43.310;21.876;2023-02-28T22:02:32;41.0;;;31.0;;
22675;SDS011;12521;43.310;21.876;2023-02-28T22:07:09;41.0;;;31.0;;
22675;SDS011;12521;43.310;21.876;2023-02-28T22:11:46;46.0;;;33.0;;
22675;SDS011;12521;43.310;21.876;2023-02-28T22:16:30;46.0;;;33.0;;
22675;SDS011;12521;43.310;21.876;2023-02-28T22:21:15;50.0;;;35.0;;
22675;SDS011;12521;43.310;21.876;2023-02-28T22:25:59;50.0;;;35.0;;
22675;SDS011;12521;43.310;21.876;2023-02-28T22:30:41;50.0;;;36.0;;
22675;SDS011;12521;43.310;21.876;2023-02-28T22:35:18;50.0;;;36.0;;
22675;SDS011;12521;43.310;21.876;2023-02-28T22:39:54;50.0;;;36.0;;
22675;SDS011;12521;43.310;21.876;2023-02-28T22:44:31;51.0;;;37.0;;
22675;SDS011;12521;43.310;21.876;2023-02-28T22:49:07;51.0;;;37.0;;
22675;SDS011;12521;43.310;21.876;2023-02-28T22:53:49;50.0;;;36.0;;
22675;SDS011;12521;43.310;21.876;2023-02-28T22:58:28;50.0;;;36.0;;
22675;SDS011;12521;43.310;21.876;2023-02-28T23:03:05;49.0;;;35.0;;
22675;SDS011;12521;43.310;21.876;2023-02-28T23:07:42;49.0;;;35.0;;
22675;SDS011;12521;43.310;21.876;2023-02-28T23:12:19;48.0;;;32.0;;
22675;SDS011;12521;43.310;21.876;2023-02-28T23:16:55;48.0;;;32.0;;
22675;SDS011;12521;43.310;21.876;2023-02-28T23:21:34;47.0;;;30.0;;
22675;SDS011;12521;43.310;21.876;2023-02-28T23:26:11;47.0;;;30.0;;
22675;SDS011;12521;43.310;21.876;2023-02-28T23:30:48;46.0;;;30.0;;
22675;SDS011;12521;43.310;21.876;2023-02-28T23:35:25;46.0;;;30.0;;
22675;SDS011;12521;43.310;21.876;2023-02-28T23:40:06;46.0;;;30.0;;
22675;SDS011;12521;43.310;21.876;2023-02-28T23:44:46;45.0;;;29.0;;
22675;SDS011;12521;43.310;21.876;2023-02-28T23:49:23;45.0;;;29.0;;
22675;SDS011;12521;43.310;21.876;2023-02-28T23:54:00;42.0;;;30.0;;
22675;SDS011;12521;43.310;21.876;2023-02-28T23:58:36;42.0;;;30.0;;
